sensor_id;sensor_type;location;lat;lon;timestamp;pressure;altitude;pressure_sealevel;temperature;humidity
55217;BME280;41086;46.736;15.666;2024-02-16T00:02:08;98938.34;;;4.59;100.00
55217;BME280;41086;46.736;15.666;2024-02-16T00:04:35;98941.13;;;4.54;100.00
55217;BME280;41086;46.736;15.666;2024-02-16T00:07:02;98939.63;;;4.47;100.00
55217;BME280;41086;46.736;15.666;2024-02-16T00:09:29;98925.94;;;4.14;100.00
55217;BME280;41086;46.736;15.666;2024-02-16T00:11:55;98920.28;;;4.01;100.00
55217;BME280;41086;46.736;15.666;2024-02-16T00:14:22;98942.31;;;3.95;100.00
55217;BME280;41086;46.736;15.666;2024-02-16T00:16:49;98945.31;;;4.10;100.00
55217;BME280;41086;46.736;15.666;2024-02-16T00:19:16;98941.16;;;4.29;100.00
55217;BME280;41086;46.736;15.666;2024-02-16T00:21:43;98930.28;;;4.40;100.00
55217;BME280;41086;46.736;15.666;2024-02-16T00:24:10;98939.19;;;4.11;100.00
55217;BME280;41086;46.736;15.666;2024-02-16T00:26:37;98913.63;;;3.66;100.00
55217;BME280;41086;46.736;15.666;2024-02-16T00:29:06;98941.94;;;3.81;100.00
55217;BME280;41086;46.736;15.666;2024-02-16T00:31:33;98950.09;;;4.24;100.00
55217;BME280;41086;46.736;15.666;2024-02-16T00:34:00;98941.13;;;4.54;100.00
55217;BME280;41086;46.736;15.666;2024-02-16T00:36:27;98943.78;;;4.76;100.00
55217;BME280;41086;46.736;15.666;2024-02-16T00:38:55;98938.56;;;4.98;100.00
55217;BME280;41086;46.736;15.666;2024-02-16T00:41:22;98944.88;;;4.94;100.00
55217;BME280;41086;46.736;15.666;2024-02-16T00:43:49;98936.66;;;4.80;100.00
55217;BME280;41086;46.736;15.666;2024-02-16T00:46:17;98939.47;;;4.75;100.00
55217;BME280;41086;46.736;15.666;2024-02-16T00:48:44;98940.66;;;4.66;100.00
55217;BME280;41086;46.736;15.666;2024-02-16T00:51:13;98937.09;;;4.44;100.00
55217;BME280;41086;46.736;15.666;2024-02-16T00:53:40;98939.56;;;4.49;100.00
55217;BME280;41086;46.736;15.666;2024-02-16T00:56:07;98942.28;;;4.22;100.00
55217;BME280;41086;46.736;15.666;2024-02-16T00:58:35;98931.44;;;4.31;100.00
55217;BME280;41086;46.736;15.666;2024-02-16T01:01:03;98928.72;;;4.34;100.00
55217;BME280;41086;46.736;15.666;2024-02-16T01:03:30;98927.19;;;4.52;100.00
55217;BME280;41086;46.736;15.666;2024-02-16T01:05:58;98935.50;;;4.63;100.00
55217;BME280;41086;46.736;15.666;2024-02-16T01:08:25;98940.84;;;4.62;100.00
55217;BME280;41086;46.736;15.666;2024-02-16T01:10:54;98940.03;;;4.60;100.00
55217;BME280;41086;46.736;15.666;2024-02-16T01:13:21;98943.78;;;4.53;100.00
55217;BME280;41086;46.736;15.666;2024-02-16T01:15:48;98943.97;;;4.48;100.00
55217;BME280;41086;46.736;15.666;2024-02-16T01:18:15;98927.72;;;4.37;100.00
55217;BME280;41086;46.736;15.666;2024-02-16T01:20:42;98928.78;;;4.33;100.00
55217;BME280;41086;46.736;15.666;2024-02-16T01:23:09;98912.69;;;4.18;100.00
55217;BME280;41086;46.736;15.666;2024-02-16T01:25:36;98916.66;;;4.05;100.00
55217;BME280;41086;46.736;15.666;2024-02-16T01:28:03;98933.50;;;3.98;100.00
55217;BME280;41086;46.736;15.666;2024-02-16T01:30:29;98929.94;;;3.74;100.00
55217;BME280;41086;46.736;15.666;2024-02-16T01:32:56;98921.06;;;3.78;100.00
55217;BME280;41086;46.736;15.666;2024-02-16T01:35:23;98921.22;;;3.73;100.00
55217;BME280;41086;46.736;15.666;2024-02-16T01:37:50;98918.72;;;3.70;100.00
55217;BME280;41086;46.736;15.666;2024-02-16T01:40:17;98913.72;;;3.88;100.00
55217;BME280;41086;46.736;15.666;2024-02-16T01:42:44;98920.53;;;3.68;100.00
55217;BME280;41086;46.736;15.666;2024-02-16T01:45:11;98922.31;;;3.66;100.00
55217;BME280;41086;46.736;15.666;2024-02-16T01:47:43;98919.22;;;3.55;100.00
55217;BME280;41086;46.736;15.666;2024-02-16T01:50:11;98929.19;;;3.70;100.00
55217;BME280;41086;46.736;15.666;2024-02-16T01:52:38;98914.88;;;3.54;100.00
55217;BME280;41086;46.736;15.666;2024-02-16T01:55:05;98921.22;;;3.47;100.00
55217;BME280;41086;46.736;15.666;2024-02-16T01:57:46;98917.56;;;3.26;100.00
55217;BME280;41086;46.736;15.666;2024-02-16T02:00:14;98913.16;;;2.98;100.00
55217;BME280;41086;46.736;15.666;2024-02-16T02:02:45;98911.16;;;3.06;100.00
55217;BME280;41086;46.736;15.666;2024-02-16T02:05:13;98910.88;;;2.87;100.00
55217;BME280;41086;46.736;15.666;2024-02-16T02:07:42;98912.22;;;2.73;100.00
55217;BME280;41086;46.736;15.666;2024-02-16T02:10:10;98907.97;;;2.69;100.00
55217;BME280;41086;46.736;15.666;2024-02-16T02:12:40;98907.84;;;2.43;100.00
55217;BME280;41086;46.736;15.666;2024-02-16T02:15:09;98908.44;;;2.22;100.00
55217;BME280;41086;46.736;15.666;2024-02-16T02:17:35;98905.34;;;2.08;100.00
55217;BME280;41086;46.736;15.666;2024-02-16T02:20:03;98896.78;;;2.03;100.00
55217;BME280;41086;46.736;15.666;2024-02-16T02:22:37;98900.31;;;2.02;100.00
55217;BME280;41086;46.736;15.666;2024-02-16T02:25:04;98895.53;;;2.16;100.00
55217;BME280;41086;46.736;15.666;2024-02-16T02:27:31;98899.75;;;2.51;100.00
55217;BME280;41086;46.736;15.666;2024-02-16T02:29:58;98906.94;;;2.74;100.00
55217;BME280;41086;46.736;15.666;2024-02-16T02:32:25;98904.97;;;2.82;100.00
55217;BME280;41086;46.736;15.666;2024-02-16T02:34:52;98907.34;;;2.60;100.00
55217;BME280;41086;46.736;15.666;2024-02-16T02:37:19;98906.69;;;2.52;100.00
55217;BME280;41086;46.736;15.666;2024-02-16T02:39:46;98902.50;;;2.47;100.00
55217;BME280;41086;46.736;15.666;2024-02-16T02:42:13;98897.53;;;2.39;100.00
55217;BME280;41086;46.736;15.666;2024-02-16T02:44:40;98893.56;;;2.24;100.00
55217;BME280;41086;46.736;15.666;2024-02-16T02:47:09;98902.50;;;2.47;100.00
55217;BME280;41086;46.736;15.666;2024-02-16T02:49:35;98904.66;;;2.63;100.00
55217;BME280;41086;46.736;15.666;2024-02-16T02:52:02;98902.63;;;3.01;100.00
55217;BME280;41086;46.736;15.666;2024-02-16T02:54:30;98897.25;;;3.32;100.00
55217;BME280;41086;46.736;15.666;2024-02-16T02:56:58;98905.69;;;3.42;100.00
55217;BME280;41086;46.736;15.666;2024-02-16T02:59:24;98894.50;;;3.37;100.00
55217;BME280;41086;46.736;15.666;2024-02-16T03:01:51;98894.03;;;3.24;100.00
55217;BME280;41086;46.736;15.666;2024-02-16T03:04:18;98897.31;;;3.03;100.00
55217;BME280;41086;46.736;15.666;2024-02-16T03:06:45;98891.69;;;2.87;100.00
55217;BME280;41086;46.736;15.666;2024-02-16T03:09:12;98882.88;;;2.91;100.00
55217;BME280;41086;46.736;15.666;2024-02-16T03:11:39;98891.50;;;2.65;100.00
55217;BME280;41086;46.736;15.666;2024-02-16T03:14:06;98885.19;;;2.72;100.00
55217;BME280;41086;46.736;15.666;2024-02-16T03:16:33;98893.78;;;2.76;100.00
55217;BME280;41086;46.736;15.666;2024-02-16T03:19:00;98899.44;;;2.62;100.00
55217;BME280;41086;46.736;15.666;2024-02-16T03:21:27;98898.19;;;2.75;100.00
55217;BME280;41086;46.736;15.666;2024-02-16T03:23:54;98894.22;;;2.62;100.00
55217;BME280;41086;46.736;15.666;2024-02-16T03:26:20;98889.81;;;2.33;100.00
55217;BME280;41086;46.736;15.666;2024-02-16T03:28:48;98887.38;;;1.95;100.00
55217;BME280;41086;46.736;15.666;2024-02-16T03:31:18;98898.94;;;1.87;100.00
55217;BME280;41086;46.736;15.666;2024-02-16T03:33:46;98893.97;;;1.77;100.00
55217;BME280;41086;46.736;15.666;2024-02-16T03:36:14;98901.03;;;1.74;100.00
55217;BME280;41086;46.736;15.666;2024-02-16T03:38:45;98892.50;;;1.67;100.00
55217;BME280;41086;46.736;15.666;2024-02-16T03:41:14;98891.38;;;2.09;100.00
55217;BME280;41086;46.736;15.666;2024-02-16T03:43:41;98899.81;;;2.20;100.00
55217;BME280;41086;46.736;15.666;2024-02-16T03:46:09;98865.63;;;1.95;100.00
55217;BME280;41086;46.736;15.666;2024-02-16T03:48:37;98904.53;;;2.37;100.00
55217;BME280;41086;46.736;15.666;2024-02-16T03:51:05;98912.00;;;2.51;100.00
55217;BME280;41086;46.736;15.666;2024-02-16T03:53:32;98907.91;;;2.40;100.00
55217;BME280;41086;46.736;15.666;2024-02-16T03:55:59;98908.66;;;2.14;100.00
55217;BME280;41086;46.736;15.666;2024-02-16T03:58:26;98909.22;;;2.26;100.00
55217;BME280;41086;46.736;15.666;2024-02-16T04:00:53;98909.56;;;2.13;100.00
55217;BME280;41086;46.736;15.666;2024-02-16T04:03:20;98892.38;;;2.05;100.00
55217;BME280;41086;46.736;15.666;2024-02-16T04:05:47;98903.84;;;2.30;100.00
55217;BME280;41086;46.736;15.666;2024-02-16T04:08:14;98906.47;;;2.60;100.00
55217;BME280;41086;46.736;15.666;2024-02-16T04:10:41;98906.38;;;2.63;100.00
55217;BME280;41086;46.736;15.666;2024-02-16T04:13:07;98919.03;;;2.78;100.00
55217;BME280;41086;46.736;15.666;2024-02-16T04:15:34;98914.63;;;2.49;100.00
55217;BME280;41086;46.736;15.666;2024-02-16T04:18:01;98914.16;;;2.66;100.00
55217;BME280;41086;46.736;15.666;2024-02-16T04:20:28;98917.75;;;2.62;100.00
55217;BME280;41086;46.736;15.666;2024-02-16T04:22:55;98926.59;;;2.58;100.00
55217;BME280;41086;46.736;15.666;2024-02-16T04:25:22;98922.59;;;2.46;100.00
55217;BME280;41086;46.736;15.666;2024-02-16T04:27:49;98918.09;;;2.50;100.00
55217;BME280;41086;46.736;15.666;2024-02-16T04:30:15;98920.47;;;2.59;100.00
55217;BME280;41086;46.736;15.666;2024-02-16T04:32:42;98925.59;;;2.63;100.00
55217;BME280;41086;46.736;15.666;2024-02-16T04:35:09;98933.34;;;2.66;100.00
55217;BME280;41086;46.736;15.666;2024-02-16T04:37:39;98944.59;;;2.98;100.00
55217;BME280;41086;46.736;15.666;2024-02-16T04:40:07;98945.16;;;3.09;100.00
55217;BME280;41086;46.736;15.666;2024-02-16T04:42:34;98930.84;;;2.92;100.00
55217;BME280;41086;46.736;15.666;2024-02-16T04:45:01;98841.78;;;2.37;100.00
55217;BME280;41086;46.736;15.666;2024-02-16T04:47:32;98923.00;;;2.92;100.00
55217;BME280;41086;46.736;15.666;2024-02-16T04:49:59;98943.38;;;3.10;100.00
55217;BME280;41086;46.736;15.666;2024-02-16T04:52:26;98936.41;;;2.81;100.00
55217;BME280;41086;46.736;15.666;2024-02-16T04:54:56;98945.38;;;2.72;100.00
55217;BME280;41086;46.736;15.666;2024-02-16T04:57:23;98937.66;;;2.67;100.00
55217;BME280;41086;46.736;15.666;2024-02-16T04:59:49;98936.75;;;2.69;100.00
55217;BME280;41086;46.736;15.666;2024-02-16T05:02:16;98936.19;;;2.59;100.00
55217;BME280;41086;46.736;15.666;2024-02-16T05:04:43;98932.56;;;2.63;100.00
55217;BME280;41086;46.736;15.666;2024-02-16T05:07:10;98931.56;;;2.67;100.00
55217;BME280;41086;46.736;15.666;2024-02-16T05:09:37;98937.56;;;2.71;100.00
55217;BME280;41086;46.736;15.666;2024-02-16T05:12:04;98939.75;;;2.86;100.00
55217;BME280;41086;46.736;15.666;2024-02-16T05:14:31;98934.63;;;2.81;100.00
55217;BME280;41086;46.736;15.666;2024-02-16T05:16:58;98933.06;;;2.76;100.00
55217;BME280;41086;46.736;15.666;2024-02-16T05:19:25;98929.81;;;2.67;100.00
55217;BME280;41086;46.736;15.666;2024-02-16T05:21:52;98922.78;;;2.70;100.00
55217;BME280;41086;46.736;15.666;2024-02-16T05:24:19;98916.38;;;2.50;100.00
55217;BME280;41086;46.736;15.666;2024-02-16T05:26:47;98921.41;;;2.56;100.00
55217;BME280;41086;46.736;15.666;2024-02-16T05:29:14;98924.66;;;2.35;100.00
55217;BME280;41086;46.736;15.666;2024-02-16T05:31:40;98917.66;;;2.35;100.00
55217;BME280;41086;46.736;15.666;2024-02-16T05:34:07;98929.78;;;2.38;100.00
55217;BME280;41086;46.736;15.666;2024-02-16T05:36:34;98924.84;;;1.96;100.00
55217;BME280;41086;46.736;15.666;2024-02-16T05:39:03;98931.81;;;1.95;100.00
55217;BME280;41086;46.736;15.666;2024-02-16T05:41:47;98914.03;;;1.77;100.00
55217;BME280;41086;46.736;15.666;2024-02-16T05:44:14;98926.94;;;1.83;100.00
55217;BME280;41086;46.736;15.666;2024-02-16T05:46:41;98933.44;;;1.67;100.00
55217;BME280;41086;46.736;15.666;2024-02-16T05:49:08;98940.88;;;1.48;100.00
55217;BME280;41086;46.736;15.666;2024-02-16T05:51:37;98941.56;;;1.56;100.00
55217;BME280;41086;46.736;15.666;2024-02-16T05:54:08;98925.13;;;1.51;100.00
55217;BME280;41086;46.736;15.666;2024-02-16T05:56:34;98951.34;;;1.46;100.00
55217;BME280;41086;46.736;15.666;2024-02-16T05:59:03;98945.00;;;1.21;100.00
55217;BME280;41086;46.736;15.666;2024-02-16T06:01:30;98939.69;;;1.25;100.00
55217;BME280;41086;46.736;15.666;2024-02-16T06:03:57;98906.09;;;1.10;100.00
55217;BME280;41086;46.736;15.666;2024-02-16T06:06:24;98949.69;;;1.44;100.00
55217;BME280;41086;46.736;15.666;2024-02-16T06:08:51;98956.94;;;1.68;100.00
55217;BME280;41086;46.736;15.666;2024-02-16T06:11:18;98956.13;;;1.65;100.00
55217;BME280;41086;46.736;15.666;2024-02-16T06:13:44;98958.16;;;1.53;100.00
55217;BME280;41086;46.736;15.666;2024-02-16T06:16:11;98946.44;;;1.34;100.00
55217;BME280;41086;46.736;15.666;2024-02-16T06:18:38;98965.28;;;1.83;100.00
55217;BME280;41086;46.736;15.666;2024-02-16T06:21:05;98949.72;;;2.11;100.00
55217;BME280;41086;46.736;15.666;2024-02-16T06:23:32;98967.66;;;2.25;100.00
55217;BME280;41086;46.736;15.666;2024-02-16T06:25:59;98956.31;;;2.26;100.00
55217;BME280;41086;46.736;15.666;2024-02-16T06:28:26;98972.91;;;2.85;100.00
55217;BME280;41086;46.736;15.666;2024-02-16T06:30:53;98973.03;;;3.10;100.00
55217;BME280;41086;46.736;15.666;2024-02-16T06:33:20;98983.84;;;3.28;100.00
55217;BME280;41086;46.736;15.666;2024-02-16T06:35:48;98969.41;;;3.43;100.00
55217;BME280;41086;46.736;15.666;2024-02-16T06:38:17;98981.03;;;3.62;100.00
55217;BME280;41086;46.736;15.666;2024-02-16T06:40:44;98985.69;;;3.79;100.00
55217;BME280;41086;46.736;15.666;2024-02-16T06:43:10;98995.63;;;3.96;100.00
55217;BME280;41086;46.736;15.666;2024-02-16T06:45:37;98992.75;;;4.04;100.00
55217;BME280;41086;46.736;15.666;2024-02-16T06:48:05;98993.34;;;4.12;100.00
55217;BME280;41086;46.736;15.666;2024-02-16T06:50:32;98998.38;;;4.18;100.00
55217;BME280;41086;46.736;15.666;2024-02-16T06:52:59;98997.53;;;4.17;100.00
55217;BME280;41086;46.736;15.666;2024-02-16T06:55:26;98991.56;;;4.12;100.00
55217;BME280;41086;46.736;15.666;2024-02-16T06:57:53;99005.28;;;4.20;100.00
55217;BME280;41086;46.736;15.666;2024-02-16T07:00:20;99005.13;;;4.25;100.00
55217;BME280;41086;46.736;15.666;2024-02-16T07:02:48;99003.53;;;4.21;100.00
55217;BME280;41086;46.736;15.666;2024-02-16T07:05:15;99014.03;;;4.21;100.00
55217;BME280;41086;46.736;15.666;2024-02-16T07:07:44;99001.75;;;4.21;100.00
55217;BME280;41086;46.736;15.666;2024-02-16T07:10:11;98998.75;;;4.07;100.00
55217;BME280;41086;46.736;15.666;2024-02-16T07:12:40;98985.06;;;3.72;100.00
55217;BME280;41086;46.736;15.666;2024-02-16T07:15:07;99005.53;;;3.61;100.00
55217;BME280;41086;46.736;15.666;2024-02-16T07:17:35;99011.78;;;3.29;100.00
55217;BME280;41086;46.736;15.666;2024-02-16T07:20:03;98999.78;;;3.20;100.00
55217;BME280;41086;46.736;15.666;2024-02-16T07:22:30;99002.47;;;3.47;100.00
55217;BME280;41086;46.736;15.666;2024-02-16T07:24:59;98997.69;;;3.60;100.00
55217;BME280;41086;46.736;15.666;2024-02-16T07:27:29;98984.94;;;3.49;100.00
55217;BME280;41086;46.736;15.666;2024-02-16T07:29:56;98995.06;;;3.60;100.00
55217;BME280;41086;46.736;15.666;2024-02-16T07:32:23;99001.63;;;3.46;100.00
55217;BME280;41086;46.736;15.666;2024-02-16T07:34:51;99002.31;;;3.51;100.00
55217;BME280;41086;46.736;15.666;2024-02-16T07:37:18;99006.41;;;3.60;100.00
55217;BME280;41086;46.736;15.666;2024-02-16T07:39:44;99007.19;;;3.64;100.00
55217;BME280;41086;46.736;15.666;2024-02-16T07:42:11;98986.41;;;3.58;100.00
55217;BME280;41086;46.736;15.666;2024-02-16T07:44:39;98995.91;;;3.62;100.00
55217;BME280;41086;46.736;15.666;2024-02-16T07:47:06;99012.31;;;3.93;100.00
55217;BME280;41086;46.736;15.666;2024-02-16T07:49:33;98981.50;;;4.00;100.00
55217;BME280;41086;46.736;15.666;2024-02-16T07:52:01;99004.50;;;4.18;100.00
55217;BME280;41086;46.736;15.666;2024-02-16T07:54:28;98996.03;;;4.35;100.00
55217;BME280;41086;46.736;15.666;2024-02-16T07:56:55;98988.44;;;4.76;100.00
55217;BME280;41086;46.736;15.666;2024-02-16T07:59:24;99007.78;;;4.74;100.00
55217;BME280;41086;46.736;15.666;2024-02-16T08:01:51;99007.19;;;5.13;100.00
55217;BME280;41086;46.736;15.666;2024-02-16T08:04:18;99007.56;;;5.27;100.00
55217;BME280;41086;46.736;15.666;2024-02-16T08:06:45;99000.28;;;5.10;100.00
55217;BME280;41086;46.736;15.666;2024-02-16T08:09:12;99006.88;;;5.22;100.00
55217;BME280;41086;46.736;15.666;2024-02-16T08:11:44;99010.38;;;5.44;100.00
55217;BME280;41086;46.736;15.666;2024-02-16T08:14:14;99011.78;;;5.53;100.00
55217;BME280;41086;46.736;15.666;2024-02-16T08:16:44;99008.25;;;5.54;100.00
55217;BME280;41086;46.736;15.666;2024-02-16T08:19:14;99009.31;;;5.92;100.00
55217;BME280;41086;46.736;15.666;2024-02-16T08:21:46;98999.63;;;5.94;100.00
55217;BME280;41086;46.736;15.666;2024-02-16T08:24:17;99004.63;;;6.01;100.00
55217;BME280;41086;46.736;15.666;2024-02-16T08:26:49;98988.38;;;6.11;100.00
55217;BME280;41086;46.736;15.666;2024-02-16T08:29:16;99005.63;;;6.39;100.00
55217;BME280;41086;46.736;15.666;2024-02-16T08:31:43;99003.19;;;6.55;100.00
55217;BME280;41086;46.736;15.666;2024-02-16T08:34:10;98992.19;;;6.45;100.00
55217;BME280;41086;46.736;15.666;2024-02-16T08:36:37;98989.69;;;6.42;100.00
55217;BME280;41086;46.736;15.666;2024-02-16T08:39:06;99005.75;;;6.96;100.00
55217;BME280;41086;46.736;15.666;2024-02-16T08:41:33;98998.25;;;7.24;98.98
55217;BME280;41086;46.736;15.666;2024-02-16T08:44:00;99000.41;;;7.35;97.22
55217;BME280;41086;46.736;15.666;2024-02-16T08:46:27;99000.19;;;7.76;95.63
55217;BME280;41086;46.736;15.666;2024-02-16T08:48:54;99001.59;;;7.66;96.84
55217;BME280;41086;46.736;15.666;2024-02-16T08:51:21;98999.06;;;8.16;95.62
55217;BME280;41086;46.736;15.666;2024-02-16T08:53:48;98990.59;;;8.27;93.12
55217;BME280;41086;46.736;15.666;2024-02-16T08:56:14;98989.63;;;8.80;92.78
55217;BME280;41086;46.736;15.666;2024-02-16T08:58:42;98998.34;;;8.82;90.94
55217;BME280;41086;46.736;15.666;2024-02-16T09:01:09;98996.94;;;8.75;89.00
55217;BME280;41086;46.736;15.666;2024-02-16T09:03:36;98998.84;;;8.89;89.90
55217;BME280;41086;46.736;15.666;2024-02-16T09:06:05;99000.84;;;9.01;88.59
55217;BME280;41086;46.736;15.666;2024-02-16T09:08:33;99004.38;;;8.84;93.01
55217;BME280;41086;46.736;15.666;2024-02-16T09:11:02;98992.19;;;8.82;90.86
55217;BME280;41086;46.736;15.666;2024-02-16T09:13:32;99009.59;;;8.86;95.27
55217;BME280;41086;46.736;15.666;2024-02-16T09:16:01;98995.59;;;8.51;93.74
55217;BME280;41086;46.736;15.666;2024-02-16T09:18:28;99003.25;;;8.73;92.12
55217;BME280;41086;46.736;15.666;2024-02-16T09:20:55;98994.81;;;9.15;91.74
55217;BME280;41086;46.736;15.666;2024-02-16T09:23:22;98991.75;;;9.23;87.75
55217;BME280;41086;46.736;15.666;2024-02-16T09:25:49;98988.22;;;9.86;85.25
55217;BME280;41086;46.736;15.666;2024-02-16T09:28:17;99002.78;;;9.93;84.31
55217;BME280;41086;46.736;15.666;2024-02-16T09:30:56;98995.47;;;10.12;86.78
55217;BME280;41086;46.736;15.666;2024-02-16T09:33:23;98996.97;;;10.62;83.31
55217;BME280;41086;46.736;15.666;2024-02-16T09:35:51;98995.47;;;10.73;82.69
55217;BME280;41086;46.736;15.666;2024-02-16T09:38:17;98996.22;;;10.89;79.99
55217;BME280;41086;46.736;15.666;2024-02-16T09:40:44;99005.88;;;10.76;80.14
55217;BME280;41086;46.736;15.666;2024-02-16T09:43:27;99002.56;;;10.72;79.51
55217;BME280;41086;46.736;15.666;2024-02-16T09:45:58;99007.28;;;11.24;78.85
55217;BME280;41086;46.736;15.666;2024-02-16T09:48:27;99000.72;;;11.71;76.02
55217;BME280;41086;46.736;15.666;2024-02-16T09:50:56;99008.50;;;12.29;71.83
55217;BME280;41086;46.736;15.666;2024-02-16T09:53:25;99010.56;;;13.15;69.93
55217;BME280;41086;46.736;15.666;2024-02-16T09:55:53;99006.31;;;13.62;66.58
55217;BME280;41086;46.736;15.666;2024-02-16T09:58:20;98999.00;;;13.52;62.58
55217;BME280;41086;46.736;15.666;2024-02-16T10:00:53;99008.47;;;13.57;66.50
55217;BME280;41086;46.736;15.666;2024-02-16T10:03:31;99004.44;;;14.23;62.73
55217;BME280;41086;46.736;15.666;2024-02-16T10:06:10;98999.47;;;13.70;65.51
55217;BME280;41086;46.736;15.666;2024-02-16T10:08:52;99005.09;;;14.84;59.01
55217;BME280;41086;46.736;15.666;2024-02-16T10:11:21;98999.88;;;14.01;61.88
55217;BME280;41086;46.736;15.666;2024-02-16T10:14:02;98996.81;;;13.34;59.73
55217;BME280;41086;46.736;15.666;2024-02-16T10:16:31;98998.84;;;12.92;61.96
55217;BME280;41086;46.736;15.666;2024-02-16T10:19:05;98994.47;;;13.16;62.75
55217;BME280;41086;46.736;15.666;2024-02-16T10:21:33;99000.38;;;13.58;62.03
55217;BME280;41086;46.736;15.666;2024-02-16T10:24:08;98991.16;;;14.34;56.65
55217;BME280;41086;46.736;15.666;2024-02-16T10:26:37;98989.47;;;14.69;54.10
55217;BME280;41086;46.736;15.666;2024-02-16T10:29:05;98984.25;;;14.90;55.61
55217;BME280;41086;46.736;15.666;2024-02-16T10:31:32;98987.44;;;15.17;57.37
55217;BME280;41086;46.736;15.666;2024-02-16T10:34:04;98982.25;;;15.70;52.17
55217;BME280;41086;46.736;15.666;2024-02-16T10:36:37;98984.16;;;16.23;52.14
55217;BME280;41086;46.736;15.666;2024-02-16T10:39:06;98976.47;;;16.30;48.34
55217;BME280;41086;46.736;15.666;2024-02-16T10:41:40;98978.56;;;16.89;49.47
55217;BME280;41086;46.736;15.666;2024-02-16T10:44:07;98972.16;;;16.38;48.55
55217;BME280;41086;46.736;15.666;2024-02-16T10:46:34;98963.88;;;15.88;49.93
55217;BME280;41086;46.736;15.666;2024-02-16T10:49:02;98971.09;;;16.30;49.07
55217;BME280;41086;46.736;15.666;2024-02-16T10:51:43;98966.88;;;16.48;47.22
55217;BME280;41086;46.736;15.666;2024-02-16T10:54:13;98965.88;;;16.28;47.38
55217;BME280;41086;46.736;15.666;2024-02-16T10:56:42;98967.41;;;16.84;47.87
55217;BME280;41086;46.736;15.666;2024-02-16T10:59:10;98961.94;;;16.74;47.61
55217;BME280;41086;46.736;15.666;2024-02-16T11:01:38;98954.38;;;17.50;46.33
55217;BME280;41086;46.736;15.666;2024-02-16T11:04:07;98968.75;;;16.99;46.04
55217;BME280;41086;46.736;15.666;2024-02-16T11:06:56;98959.81;;;16.68;48.10
55217;BME280;41086;46.736;15.666;2024-02-16T11:09:26;98957.41;;;16.23;49.72
55217;BME280;41086;46.736;15.666;2024-02-16T11:11:58;98957.53;;;16.22;49.45
55217;BME280;41086;46.736;15.666;2024-02-16T11:14:40;98947.72;;;16.74;49.66
55217;BME280;41086;46.736;15.666;2024-02-16T11:17:11;98949.75;;;17.72;47.45
55217;BME280;41086;46.736;15.666;2024-02-16T11:19:47;98939.03;;;18.59;45.62
55217;BME280;41086;46.736;15.666;2024-02-16T11:22:16;98946.88;;;19.27;44.91
55217;BME280;41086;46.736;15.666;2024-02-16T11:24:50;98939.63;;;19.56;43.31
55217;BME280;41086;46.736;15.666;2024-02-16T11:27:21;98941.31;;;19.84;41.73
55217;BME280;41086;46.736;15.666;2024-02-16T11:29:49;98943.06;;;19.93;39.99
55217;BME280;41086;46.736;15.666;2024-02-16T11:32:19;98938.44;;;19.86;41.02
55217;BME280;41086;46.736;15.666;2024-02-16T11:34:47;98938.31;;;19.87;40.70
55217;BME280;41086;46.736;15.666;2024-02-16T11:37:15;98937.75;;;20.20;40.42
55217;BME280;41086;46.736;15.666;2024-02-16T11:39:42;98930.53;;;20.20;40.48
55217;BME280;41086;46.736;15.666;2024-02-16T11:42:13;98923.16;;;20.04;40.76
55217;BME280;41086;46.736;15.666;2024-02-16T11:44:53;98923.00;;;18.87;43.00
55217;BME280;41086;46.736;15.666;2024-02-16T11:47:23;98919.47;;;19.42;44.30
55217;BME280;41086;46.736;15.666;2024-02-16T11:50:08;98920.47;;;19.86;42.68
55217;BME280;41086;46.736;15.666;2024-02-16T11:52:39;98910.34;;;19.98;42.23
55217;BME280;41086;46.736;15.666;2024-02-16T11:55:09;98913.88;;;19.99;41.59
55217;BME280;41086;46.736;15.666;2024-02-16T11:57:38;98907.50;;;19.82;40.83
55217;BME280;41086;46.736;15.666;2024-02-16T12:00:06;98910.69;;;20.21;42.10
55217;BME280;41086;46.736;15.666;2024-02-16T12:02:38;98896.13;;;19.88;42.41
55217;BME280;41086;46.736;15.666;2024-02-16T12:05:05;98906.19;;;20.30;41.97
55217;BME280;41086;46.736;15.666;2024-02-16T12:07:33;98911.47;;;19.78;41.78
55217;BME280;41086;46.736;15.666;2024-02-16T12:10:02;98908.25;;;19.74;43.36
55217;BME280;41086;46.736;15.666;2024-02-16T12:12:33;98901.75;;;20.21;42.31
55217;BME280;41086;46.736;15.666;2024-02-16T12:15:01;98908.31;;;20.62;42.01
55217;BME280;41086;46.736;15.666;2024-02-16T12:17:29;98909.13;;;20.89;41.73
55217;BME280;41086;46.736;15.666;2024-02-16T12:19:55;98897.81;;;20.77;40.51
55217;BME280;41086;46.736;15.666;2024-02-16T12:22:23;98896.34;;;20.39;41.08
55217;BME280;41086;46.736;15.666;2024-02-16T12:24:50;98897.63;;;20.52;41.84
55217;BME280;41086;46.736;15.666;2024-02-16T12:27:18;98893.22;;;20.69;41.35
55217;BME280;41086;46.736;15.666;2024-02-16T12:29:44;98894.50;;;20.65;41.51
55217;BME280;41086;46.736;15.666;2024-02-16T12:32:13;98886.75;;;20.62;41.62
55217;BME280;41086;46.736;15.666;2024-02-16T12:34:44;98888.75;;;20.86;41.64
55217;BME280;41086;46.736;15.666;2024-02-16T12:37:11;98881.09;;;20.73;40.22
55217;BME280;41086;46.736;15.666;2024-02-16T12:39:38;98884.56;;;20.92;42.33
55217;BME280;41086;46.736;15.666;2024-02-16T12:42:07;98889.25;;;21.32;42.17
55217;BME280;41086;46.736;15.666;2024-02-16T12:44:34;98885.47;;;21.51;40.68
55217;BME280;41086;46.736;15.666;2024-02-16T12:47:01;98881.91;;;20.66;40.93
55217;BME280;41086;46.736;15.666;2024-02-16T12:49:27;98885.59;;;20.65;41.06
55217;BME280;41086;46.736;15.666;2024-02-16T12:51:54;98887.34;;;20.74;41.77
55217;BME280;41086;46.736;15.666;2024-02-16T12:54:21;98885.00;;;20.79;41.27
55217;BME280;41086;46.736;15.666;2024-02-16T12:56:49;98883.16;;;20.79;41.50